Time;durP1;ratioP1;P1;durP2;ratioP2;P2;SDS_P1;SDS_P2;PMS_P1;PMS_P2;Temp;Humidity;BMP_temperature;BMP_pressure;BME280_temperature;BME280_humidity;BME280_pressure;Samples;Min_cycle;Max_cycle;Signal;HPM_P1;HPM_P2
2022/04/02 00:02:22;;;;;;;;;;;;;;;;;;2208795;67;1934;-72
2022/04/02 00:04:55;;;;;;;;;;;;;;;;;;2211826;67;1208;-72
2022/04/02 00:07:28;;;;;;;;;;;;;;;;;;2211873;59;1304;-72
2022/04/02 00:10:01;;;;;;;;;;;;;;;;;;2213083;67;1148;-72
2022/04/02 00:12:37;;;;;;;;;;;;;;;;;;2213502;67;1195;-72
2022/04/02 00:15:11;;;;;;;;;;;;;;;;;;2211657;59;1634;-72
2022/04/02 00:17:44;;;;;;;;;;;;;;;;;;2212194;67;1114;-71
2022/04/02 00:20:18;;;;;;;;;;;;;;;;;;2211217;59;1787;-72
2022/04/02 00:25:36;;;;;;;;;;;;;;;;;;2211241;67;1273;-72
2022/04/02 00:28:12;;;;;;;;;;;;;;;;;;2212070;67;1191;-72
2022/04/02 00:30:45;;;;;;;;;;;;;;;;;;2211380;59;1544;-72
2022/04/02 00:33:18;;;;;;;;;;;;;;;;;;2211883;67;1104;-72
2022/04/02 00:35:52;;;;;;;;;;;;;;;;;;2210440;53;2004;-69
2022/04/02 00:38:25;;;;;;;;;;;;;;;;;;2210415;59;1204;-69
2022/04/02 00:40:58;;;;;;;;;;;;;;;;;;2212097;67;1297;-69
2022/04/02 00:43:35;;;;;;;;;;;;;;;;;;2211597;59;2003;-69
2022/04/02 00:46:10;;;;;;;;;;;;;;;;;;2214763;59;1248;-69
2022/04/02 00:48:43;;;;;;;;;;;;;;;;;;2215458;67;1237;-69
2022/04/02 00:51:18;;;;;;;;;;;;;;;;;;2215394;59;1251;-70
2022/04/02 00:53:53;;;;;;;;;;;;;;;;;;2211775;67;1566;-69
2022/04/02 00:56:26;;;;;;;;;;;;;;;;;;2214721;59;1701;-70
2022/04/02 00:59:02;;;;;;;;;;;;;;;;;;2215512;59;1089;-69
2022/04/02 01:01:35;;;;;;;;;;;;;;;;;;2215025;59;1108;-70
2022/04/02 01:04:09;;;;;;;;;;;;;;;;;;2215143;59;1994;-70
2022/04/02 01:06:43;;;;;;;;;;;;;;;;;;2214834;59;1633;-69
2022/04/02 01:09:16;;;;;;;;;;;;;;;;;;2215192;59;1240;-69
2022/04/02 01:11:52;;;;;;;;;;;;;;;;;;2215091;59;1926;-69
2022/04/02 01:14:28;;;;;;;;;;;;;;;;;;2214800;59;1842;-69
2022/04/02 01:17:04;;;;;;;;;;;;;;;;;;2215156;59;1123;-69
2022/04/02 01:19:37;;;;;;;;;;;;;;;;;;2215521;59;1837;-69
2022/04/02 01:22:13;;;;;;;;;;;;;;;;;;2215414;67;1237;-69
2022/04/02 01:24:46;;;;;;;;;;;;;;;;;;2215020;67;2375;-69
2022/04/02 01:27:19;;;;;;;;;;;;;;;;;;2214961;67;1255;-70
2022/04/02 01:29:52;;;;;;;;;;;;;;;;;;2215099;67;1168;-70
2022/04/02 01:32:25;;;;;;;;;;;;;;;;;;2214757;59;1266;-70
2022/04/02 01:34:58;;;;;;;;;;;;;;;;;;2214568;59;1762;-69
2022/04/02 01:37:35;;;;;;;;;;;;;;;;;;2214484;67;1097;-70
2022/04/02 01:40:09;;;;;;;;;;;;;;;;;;2215202;59;1117;-69
2022/04/02 01:42:42;;;;;;;;;;;;;;;;;;2215381;67;1941;-69
2022/04/02 01:45:17;;;;;;;;;;;;;;;;;;2211405;67;2077;-70
2022/04/02 01:47:51;;;;;;;;;;;;;;;;;;2215456;59;1185;-69
2022/04/02 01:50:25;;;;;;;;;;;;;;;;;;2215292;67;1279;-69
2022/04/02 01:53:01;;;;;;;;;;;;;;;;;;2215185;67;1208;-70
2022/04/02 01:55:34;;;;;;;;;;;;;;;;;;2214556;59;1726;-69
2022/04/02 01:58:07;;;;;;;;;;;;;;;;;;2215221;59;1156;-70
2022/04/02 02:00:40;;;;;;;;;;;;;;;;;;2215516;59;1274;-70
2022/04/02 02:03:14;;;;;;;;;;;;;;;;;;2215004;67;1984;-69
2022/04/02 02:05:47;;;;;;;;;;;;;;;;;;2215338;67;1216;-70
2022/04/02 02:08:23;;;;;;;;;;;;;;;;;;2215294;67;1123;-70
2022/04/02 02:10:56;;;;;;;;;;;;;;;;;;2215087;59;1263;-70
2022/04/02 02:13:29;;;;;;;;;;;;;;;;;;2214862;59;1336;-69
2022/04/02 02:16:02;;;;;;;;;;;;;;;;;;2211157;59;1917;-69
2022/04/02 02:18:35;;;;;;;;;;;;;;;;;;2215187;59;2122;-69
2022/04/02 02:21:08;;;;;;;;;;;;;;;;;;2214838;67;1370;-69
2022/04/02 02:23:44;;;;;;;;;;;;;;;;;;2214776;67;1933;-69
2022/04/02 02:26:17;;;;;;;;;;;;;;;;;;2214773;67;1356;-69
2022/04/02 02:28:51;;;;;;;;;;;;;;;;;;2214470;59;1643;-69
2022/04/02 02:31:24;;;;;;;;;;;;;;;;;;2214832;67;1250;-69
2022/04/02 02:36:46;;;;;;;;;;;;;;;;;;2214927;67;1167;-69
2022/04/02 02:39:22;;;;;;;;;;;;;;;;;;2215053;59;1249;-69
2022/04/02 02:41:55;;;;;;;;;;;;;;;;;;2215054;59;1230;-69
2022/04/02 02:44:28;;;;;;;;;;;;;;;;;;2214629;67;2007;-69
2022/04/02 02:47:01;;;;;;;;;;;;;;;;;;2214996;67;1105;-69
2022/04/02 02:49:34;;;;;;;;;;;;;;;;;;2214767;59;1196;-69
2022/04/02 02:52:08;;;;;;;;;;;;;;;;;;2214568;59;1709;-69
2022/04/02 02:54:44;;;;;;;;;;;;;;;;;;2214398;59;1790;-68
2022/04/02 02:57:17;;;;;;;;;;;;;;;;;;2215176;67;1179;-69
2022/04/02 02:59:51;;;;;;;;;;;;;;;;;;2215065;67;1279;-69
2022/04/02 03:02:25;;;;;;;;;;;;;;;;;;2215174;67;1173;-69
2022/04/02 03:04:58;;;;;;;;;;;;;;;;;;2214882;59;1997;-69
2022/04/02 03:07:37;;;;;;;;;;;;;;;;;;2214841;59;1176;-69
2022/04/02 03:10:13;;;;;;;;;;;;;;;;;;2214787;67;1129;-69
2022/04/02 03:12:46;;;;;;;;;;;;;;;;;;2214830;60;1180;-69
2022/04/02 03:15:20;;;;;;;;;;;;;;;;;;2214569;59;1703;-69
2022/04/02 03:17:55;;;;;;;;;;;;;;;;;;2214877;59;1264;-69
2022/04/02 03:20:28;;;;;;;;;;;;;;;;;;2214834;59;1833;-69
2022/04/02 03:23:01;;;;;;;;;;;;;;;;;;2214852;67;1164;-69
2022/04/02 03:25:37;;;;;;;;;;;;;;;;;;2214881;59;1933;-69
2022/04/02 03:28:10;;;;;;;;;;;;;;;;;;2215038;59;1187;-69
2022/04/02 03:30:44;;;;;;;;;;;;;;;;;;2214917;60;1266;-69
2022/04/02 03:33:20;;;;;;;;;;;;;;;;;;2214914;67;1286;-68
2022/04/02 03:35:53;;;;;;;;;;;;;;;;;;2214920;59;1741;-68
2022/04/02 03:38:27;;;;;;;;;;;;;;;;;;2214825;59;1237;-68
2022/04/02 03:41:04;;;;;;;;;;;;;;;;;;2215069;67;1152;-69
2022/04/02 03:43:37;;;;;;;;;;;;;;;;;;2214736;67;1933;-68
2022/04/02 03:48:59;;;;;;;;;;;;;;;;;;2214914;67;1201;-69
2022/04/02 03:51:32;;;;;;;;;;;;;;;;;;2214639;59;1084;-69
2022/04/02 03:54:05;;;;;;;;;;;;;;;;;;2213989;59;1440;-68
2022/04/02 03:56:41;;;;;;;;;;;;;;;;;;2214837;59;2006;-69
2022/04/02 03:59:14;;;;;;;;;;;;;;;;;;2215448;67;1060;-68
2022/04/02 04:01:47;;;;;;;;;;;;;;;;;;2211988;67;1254;-69
2022/04/02 04:04:21;;;;;;;;;;;;;;;;;;2215002;59;1935;-69
2022/04/02 04:06:54;;;;;;;;;;;;;;;;;;2215232;59;1777;-69
2022/04/02 04:09:27;;;;;;;;;;;;;;;;;;2215269;59;1242;-69
2022/04/02 04:12:03;;;;;;;;;;;;;;;;;;2215490;59;1267;-69
2022/04/02 04:14:36;;;;;;;;;;;;;;;;;;2214470;59;1865;-69
2022/04/02 04:17:09;;;;;;;;;;;;;;;;;;2215304;66;1206;-69
2022/04/02 04:19:42;;;;;;;;;;;;;;;;;;2215390;67;2186;-69
2022/04/02 04:22:15;;;;;;;;;;;;;;;;;;2215249;67;1252;-69
2022/04/02 04:24:48;;;;;;;;;;;;;;;;;;2215011;67;1941;-69
2022/04/02 04:27:24;;;;;;;;;;;;;;;;;;2215352;67;1120;-69
2022/04/02 04:29:58;;;;;;;;;;;;;;;;;;2215481;67;1104;-69
2022/04/02 04:32:31;;;;;;;;;;;;;;;;;;2215380;67;1175;-69
2022/04/02 04:35:04;;;;;;;;;;;;;;;;;;2214307;59;1752;-69
2022/04/02 04:37:37;;;;;;;;;;;;;;;;;;2215122;67;1085;-69
2022/04/02 04:40:11;;;;;;;;;;;;;;;;;;2215305;67;1129;-69
2022/04/02 04:42:47;;;;;;;;;;;;;;;;;;2215324;59;1167;-69
2022/04/02 04:45:20;;;;;;;;;;;;;;;;;;2214968;59;1938;-68
2022/04/02 04:47:53;;;;;;;;;;;;;;;;;;2214944;67;1262;-69
2022/04/02 04:50:26;;;;;;;;;;;;;;;;;;2215177;67;1248;-69
2022/04/02 04:53:00;;;;;;;;;;;;;;;;;;2215256;67;1098;-69
2022/04/02 04:55:33;;;;;;;;;;;;;;;;;;2214781;59;1845;-68
2022/04/02 04:58:09;;;;;;;;;;;;;;;;;;2214784;67;1047;-68
2022/04/02 05:00:42;;;;;;;;;;;;;;;;;;2215527;59;1213;-68
2022/04/02 05:03:16;;;;;;;;;;;;;;;;;;2215283;67;1162;-69
2022/04/02 05:05:49;;;;;;;;;;;;;;;;;;2215206;59;1919;-69
2022/04/02 05:08:23;;;;;;;;;;;;;;;;;;2215467;67;1240;-69
2022/04/02 05:10:56;;;;;;;;;;;;;;;;;;2215407;67;1157;-69
2022/04/02 05:13:32;;;;;;;;;;;;;;;;;;2215189;59;1260;-69
2022/04/02 05:16:05;;;;;;;;;;;;;;;;;;2214254;59;1735;-69
2022/04/02 05:18:40;;;;;;;;;;;;;;;;;;2215307;59;2128;-69
2022/04/02 05:21:13;;;;;;;;;;;;;;;;;;2215317;59;1211;-69
2022/04/02 05:23:46;;;;;;;;;;;;;;;;;;2215189;67;1246;-68
2022/04/02 05:26:19;;;;;;;;;;;;;;;;;;2214456;60;1992;-68
2022/04/02 05:28:56;;;;;;;;;;;;;;;;;;2215222;67;1100;-69
2022/04/02 05:31:29;;;;;;;;;;;;;;;;;;2215286;59;1120;-68
2022/04/02 05:34:02;;;;;;;;;;;;;;;;;;2214874;59;1276;-69
2022/04/02 05:36:35;;;;;;;;;;;;;;;;;;2214490;59;1946;-69
2022/04/02 05:39:08;;;;;;;;;;;;;;;;;;2215087;67;1211;-68
2022/04/02 05:41:41;;;;;;;;;;;;;;;;;;2215045;67;1267;-68
2022/04/02 05:44:18;;;;;;;;;;;;;;;;;;2215053;59;1987;-68
2022/04/02 05:46:51;;;;;;;;;;;;;;;;;;2214876;59;1468;-68
2022/04/02 05:49:24;;;;;;;;;;;;;;;;;;2211175;67;1425;-68
2022/04/02 05:51:57;;;;;;;;;;;;;;;;;;2213540;59;1874;-68
2022/04/02 05:54:30;;;;;;;;;;;;;;;;;;2213925;59;1623;-68
2022/04/02 05:57:04;;;;;;;;;;;;;;;;;;2214769;59;1101;-68
2022/04/02 05:59:41;;;;;;;;;;;;;;;;;;2214826;59;1184;-69
2022/04/02 06:02:14;;;;;;;;;;;;;;;;;;2214852;59;1656;-68
2022/04/02 06:04:47;;;;;;;;;;;;;;;;;;2214724;67;1933;-68
2022/04/02 06:07:21;;;;;;;;;;;;;;;;;;2214979;59;1199;-68
2022/04/02 06:09:54;;;;;;;;;;;;;;;;;;2215280;67;1203;-68
2022/04/02 06:12:27;;;;;;;;;;;;;;;;;;2214975;59;1207;-68
2022/04/02 06:15:03;;;;;;;;;;;;;;;;;;2214471;59;1727;-69
2022/04/02 06:17:36;;;;;;;;;;;;;;;;;;2214251;59;1103;-68
2022/04/02 06:20:10;;;;;;;;;;;;;;;;;;2213656;59;1929;-68
2022/04/02 06:22:43;;;;;;;;;;;;;;;;;;2214734;67;1274;-68
2022/04/02 06:25:16;;;;;;;;;;;;;;;;;;2214781;67;1980;-68
2022/04/02 06:27:50;;;;;;;;;;;;;;;;;;2215333;67;1116;-68
2022/04/02 06:30:26;;;;;;;;;;;;;;;;;;2214663;59;1772;-68
2022/04/02 06:33:00;;;;;;;;;;;;;;;;;;2213691;67;1093;-69
2022/04/02 06:35:33;;;;;;;;;;;;;;;;;;2208246;53;3627;-69
2022/04/02 06:38:06;;;;;;;;;;;;;;;;;;2195050;59;1299;-69
2022/04/02 06:40:40;;;;;;;;;;;;;;;;;;2197256;59;1714;-68
2022/04/02 06:43:13;;;;;;;;;;;;;;;;;;2197168;59;1938;-68
2022/04/02 06:45:49;;;;;;;;;;;;;;;;;;2201614;59;1998;-69
2022/04/02 06:48:22;;;;;;;;;;;;;;;;;;2198225;66;1090;-69
2022/04/02 06:50:56;;;;;;;;;;;;;;;;;;2196690;67;1208;-69
2022/04/02 06:53:29;;;;;;;;;;;;;;;;;;2197269;59;1782;-68
2022/04/02 06:56:02;;;;;;;;;;;;;;;;;;2198251;59;1699;-68
2022/04/02 06:58:38;;;;;;;;;;;;;;;;;;2197545;59;1127;-69
2022/04/02 07:01:14;;;;;;;;;;;;;;;;;;2197200;59;1328;-68
2022/04/02 07:03:48;;;;;;;;;;;;;;;;;;2197478;67;1071;-70
2022/04/02 07:06:21;;;;;;;;;;;;;;;;;;2198304;67;1939;-69
2022/04/02 07:08:54;;;;;;;;;;;;;;;;;;2196705;59;1791;-69
2022/04/02 07:11:28;;;;;;;;;;;;;;;;;;2196304;59;2023;-69
2022/04/02 07:14:01;;;;;;;;;;;;;;;;;;2195689;59;1892;-69
2022/04/02 07:16:37;;;;;;;;;;;;;;;;;;2196745;59;1985;-68
2022/04/02 07:19:11;;;;;;;;;;;;;;;;;;2198086;59;2006;-68
2022/04/02 07:21:44;;;;;;;;;;;;;;;;;;2198685;59;1775;-69
2022/04/02 07:24:21;;;;;;;;;;;;;;;;;;2197387;59;1819;-68
2022/04/02 07:26:56;;;;;;;;;;;;;;;;;;2199006;67;1989;-68
2022/04/02 07:29:30;;;;;;;;;;;;;;;;;;2197586;59;1243;-68
2022/04/02 07:32:07;;;;;;;;;;;;;;;;;;2198621;67;1101;-68
2022/04/02 07:34:40;;;;;;;;;;;;;;;;;;2197950;59;1663;-68
2022/04/02 07:37:17;;;;;;;;;;;;;;;;;;2197949;67;1274;-68
2022/04/02 07:39:52;;;;;;;;;;;;;;;;;;2197896;67;1088;-67
2022/04/02 07:42:26;;;;;;;;;;;;;;;;;;2198136;59;1199;-68
2022/04/02 07:45:04;;;;;;;;;;;;;;;;;;2199976;59;1930;-67
2022/04/02 07:47:41;;;;;;;;;;;;;;;;;;2197570;59;1870;-68
2022/04/02 07:50:16;;;;;;;;;;;;;;;;;;2197182;67;1426;-68
2022/04/02 07:52:52;;;;;;;;;;;;;;;;;;2198963;67;1128;-68
2022/04/02 07:55:28;;;;;;;;;;;;;;;;;;2198087;59;2476;-68
2022/04/02 07:58:05;;;;;;;;;;;;;;;;;;2198352;59;1070;-67
2022/04/02 08:00:39;;;;;;;;;;;;;;;;;;2198706;67;1242;-68
2022/04/02 08:03:15;;;;;;;;;;;;;;;;;;2196545;59;1458;-68
2022/04/02 08:05:49;;;;;;;;;;;;;;;;;;2195884;59;1987;-68
2022/04/02 08:08:22;;;;;;;;;;;;;;;;;;2194541;59;1494;-68
2022/04/02 08:10:57;;;;;;;;;;;;;;;;;;2197468;59;1666;-68
2022/04/02 08:13:31;;;;;;;;;;;;;;;;;;2197343;59;1238;-68
2022/04/02 08:16:04;;;;;;;;;;;;;;;;;;2196300;59;2797;-68
2022/04/02 08:18:40;;;;;;;;;;;;;;;;;;2197714;59;2426;-68
2022/04/02 08:21:13;;;;;;;;;;;;;;;;;;2197644;59;1732;-68
2022/04/02 08:23:47;;;;;;;;;;;;;;;;;;2198331;59;1741;-68
2022/04/02 08:26:26;;;;;;;;;;;;;;;;;;2196953;59;1990;-68
2022/04/02 08:29:05;;;;;;;;;;;;;;;;;;2198177;59;1875;-68
2022/04/02 08:31:48;;;;;;;;;;;;;;;;;;2197598;59;1666;-68
2022/04/02 08:34:31;;;;;;;;;;;;;;;;;;2197648;59;1675;-68
2022/04/02 08:37:07;;;;;;;;;;;;;;;;;;2197450;59;1192;-67
2022/04/02 08:39:49;;;;;;;;;;;;;;;;;;2198349;67;1254;-68
2022/04/02 08:42:35;;;;;;;;;;;;;;;;;;2198471;67;1193;-67
2022/04/02 08:45:09;;;;;;;;;;;;;;;;;;2197971;59;1936;-67
2022/04/02 08:48:08;;;;;;;;;;;;;;;;;;2198619;59;1186;-67
2022/04/02 08:50:48;;;;;;;;;;;;;;;;;;2196112;59;2345;-67
2022/04/02 08:53:23;;;;;;;;;;;;;;;;;;2198705;59;1274;-67
2022/04/02 08:56:00;;;;;;;;;;;;;;;;;;2198023;59;1556;-68
2022/04/02 08:58:45;;;;;;;;;;;;;;;;;;2197509;67;1072;-68
2022/04/02 09:01:25;;;;;;;;;;;;;;;;;;2198014;67;1274;-68
2022/04/02 09:04:20;;;;;;;;;;;;;;;;;;2198484;67;1187;-68
2022/04/02 09:07:11;;;;;;;;;;;;;;;;;;2197924;60;1977;-68
2022/04/02 09:10:03;;;;;;;;;;;;;;;;;;2197974;59;1728;-68
2022/04/02 09:12:45;;;;;;;;;;;;;;;;;;2202198;59;1673;-69
2022/04/02 09:15:24;;;;;;;;;;;;;;;;;;2197179;59;1736;-69
2022/04/02 09:18:04;;;;;;;;;;;;;;;;;;2197312;59;1523;-69
2022/04/02 09:20:45;;;;;;;;;;;;;;;;;;2197672;59;2281;-69
2022/04/02 09:23:26;;;;;;;;;;;;;;;;;;2197239;59;2254;-69
2022/04/02 09:26:18;;;;;;;;;;;;;;;;;;2197666;59;1927;-68
2022/04/02 09:29:04;;;;;;;;;;;;;;;;;;2198074;59;1638;-69
2022/04/02 09:31:56;;;;;;;;;;;;;;;;;;2199690;59;1194;-69
2022/04/02 09:34:47;;;;;;;;;;;;;;;;;;2196594;59;1883;-69
2022/04/02 09:37:26;;;;;;;;;;;;;;;;;;2196772;59;1671;-69
2022/04/02 09:40:05;;;;;;;;;;;;;;;;;;2197794;59;1974;-69
2022/04/02 09:42:41;;;;;;;;;;;;;;;;;;2197587;59;1767;-68
2022/04/02 09:45:18;;;;;;;;;;;;;;;;;;2199124;59;1792;-69
2022/04/02 09:48:15;;;;;;;;;;;;;;;;;;2198374;59;2389;-69
2022/04/02 09:50:51;;;;;;;;;;;;;;;;;;2195847;59;2155;-69
2022/04/02 09:53:26;;;;;;;;;;;;;;;;;;2199777;59;1759;-69
2022/04/02 09:56:09;;;;;;;;;;;;;;;;;;2199658;59;1675;-70
2022/04/02 09:58:54;;;;;;;;;;;;;;;;;;2197548;59;1572;-70
2022/04/02 10:01:32;;;;;;;;;;;;;;;;;;2200832;59;2096;-70
2022/04/02 10:07:25;;;;;;;;;;;;;;;;;;2200622;59;1942;-69
2022/04/02 10:10:00;;;;;;;;;;;;;;;;;;2198216;59;1157;-70
2022/04/02 10:12:36;;;;;;;;;;;;;;;;;;2197302;59;1798;-70
2022/04/02 10:15:10;;;;;;;;;;;;;;;;;;2197433;59;1847;-70
2022/04/02 10:17:49;;;;;;;;;;;;;;;;;;2197361;59;2496;-70
2022/04/02 10:20:28;;;;;;;;;;;;;;;;;;2198596;59;1752;-70
2022/04/02 10:23:06;;;;;;;;;;;;;;;;;;2196929;59;2226;-70
2022/04/02 10:25:45;;;;;;;;;;;;;;;;;;2197690;59;2340;-70
2022/04/02 10:28:23;;;;;;;;;;;;;;;;;;2198561;59;1701;-71
2022/04/02 10:30:58;;;;;;;;;;;;;;;;;;2196874;59;2297;-72
2022/04/02 10:36:45;;;;;;;;;;;;;;;;;;2198232;59;1712;-72
2022/04/02 10:39:27;;;;;;;;;;;;;;;;;;2198362;59;1725;-72
2022/04/02 10:42:12;;;;;;;;;;;;;;;;;;2198025;59;1650;-72
2022/04/02 10:44:59;;;;;;;;;;;;;;;;;;2197914;59;1729;-72
2022/04/02 10:47:32;;;;;;;;;;;;;;;;;;2198778;59;1937;-72
2022/04/02 10:50:07;;;;;;;;;;;;;;;;;;2197287;59;1210;-72
2022/04/02 10:52:43;;;;;;;;;;;;;;;;;;2197586;59;1478;-72
2022/04/02 10:55:18;;;;;;;;;;;;;;;;;;2197384;59;2353;-72
2022/04/02 10:57:51;;;;;;;;;;;;;;;;;;2198855;59;2754;-71
2022/04/02 11:00:26;;;;;;;;;;;;;;;;;;2198558;59;1461;-72
2022/04/02 11:03:04;;;;;;;;;;;;;;;;;;2197026;59;2285;-71
2022/04/02 11:05:37;;;;;;;;;;;;;;;;;;2199406;59;2341;-71
2022/04/02 11:08:14;;;;;;;;;;;;;;;;;;2197682;59;1930;-71
2022/04/02 11:10:50;;;;;;;;;;;;;;;;;;2199060;67;1270;-71
2022/04/02 11:13:29;;;;;;;;;;;;;;;;;;2197767;67;1005;-71
2022/04/02 11:16:04;;;;;;;;;;;;;;;;;;2196851;59;1797;-71
2022/04/02 11:19:53;;;;;;;;;;;;;;;;;;2200166;59;2363;-71
2022/04/02 11:21:36;;;;;;;;;;;;;;;;;;2201576;59;1596;-72
2022/04/02 11:24:19;;;;;;;;;;;;;;;;;;2197209;59;2528;-72
2022/04/02 11:26:53;;;;;;;;;;;;;;;;;;2198098;59;2304;-72
2022/04/02 11:29:26;;;;;;;;;;;;;;;;;;2198425;59;2739;-72
2022/04/02 11:32:03;;;;;;;;;;;;;;;;;;2196486;59;1445;-72
2022/04/02 11:34:40;;;;;;;;;;;;;;;;;;2199076;59;1601;-72
2022/04/02 11:37:16;;;;;;;;;;;;;;;;;;2198200;59;1224;-73
2022/04/02 11:39:55;;;;;;;;;;;;;;;;;;2198522;60;1211;-72
2022/04/02 11:42:29;;;;;;;;;;;;;;;;;;2197807;59;1793;-72
2022/04/02 11:45:04;;;;;;;;;;;;;;;;;;2198544;59;1741;-73
2022/04/02 11:47:40;;;;;;;;;;;;;;;;;;2197079;59;2789;-73
2022/04/02 11:50:14;;;;;;;;;;;;;;;;;;2199170;59;1769;-73
2022/04/02 11:52:52;;;;;;;;;;;;;;;;;;2196903;67;2111;-73
2022/04/02 11:55:30;;;;;;;;;;;;;;;;;;2196755;59;1636;-73
2022/04/02 11:58:06;;;;;;;;;;;;;;;;;;2201665;59;1552;-73
2022/04/02 12:00:40;;;;;;;;;;;;;;;;;;2198920;66;1238;-73
2022/04/02 12:03:23;;;;;;;;;;;;;;;;;;2197064;59;1127;-73
2022/04/02 12:05:56;;;;;;;;;;;;;;;;;;2196420;59;1460;-73
2022/04/02 12:08:30;;;;;;;;;;;;;;;;;;2198021;59;1953;-73
2022/04/02 12:11:06;;;;;;;;;;;;;;;;;;2198040;59;1782;-73
2022/04/02 12:13:40;;;;;;;;;;;;;;;;;;2194697;59;1695;-73
2022/04/02 12:16:14;;;;;;;;;;;;;;;;;;2200487;59;1637;-73
2022/04/02 12:18:57;;;;;;;;;;;;;;;;;;2199276;59;2090;-73
2022/04/02 12:21:34;;;;;;;;;;;;;;;;;;2199759;59;1570;-73
2022/04/02 12:24:07;;;;;;;;;;;;;;;;;;2197416;59;2784;-73
2022/04/02 12:26:46;;;;;;;;;;;;;;;;;;2196529;59;2654;-73
2022/04/02 12:29:20;;;;;;;;;;;;;;;;;;2196876;67;1178;-73
2022/04/02 12:31:53;;;;;;;;;;;;;;;;;;2197494;59;1824;-73
2022/04/02 12:34:28;;;;;;;;;;;;;;;;;;2201637;59;1896;-72
2022/04/02 12:37:04;;;;;;;;;;;;;;;;;;2196925;59;1666;-73
2022/04/02 12:39:39;;;;;;;;;;;;;;;;;;2195227;67;1895;-73
2022/04/02 12:42:15;;;;;;;;;;;;;;;;;;2199577;59;1809;-73
2022/04/02 12:44:48;;;;;;;;;;;;;;;;;;2198376;59;1762;-73
2022/04/02 12:47:21;;;;;;;;;;;;;;;;;;2198969;59;1933;-73
2022/04/02 12:49:54;;;;;;;;;;;;;;;;;;2198168;59;1230;-73
2022/04/02 12:52:28;;;;;;;;;;;;;;;;;;2197087;59;1639;-73
2022/04/02 12:55:02;;;;;;;;;;;;;;;;;;2197601;59;2110;-73
2022/04/02 12:57:41;;;;;;;;;;;;;;;;;;2197939;59;1600;-73
2022/04/02 13:00:26;;;;;;;;;;;;;;;;;;2198716;67;1141;-73
2022/04/02 13:03:03;;;;;;;;;;;;;;;;;;2198013;67;1348;-73
2022/04/02 13:05:44;;;;;;;;;;;;;;;;;;2197835;59;1262;-74
2022/04/02 13:08:28;;;;;;;;;;;;;;;;;;2197646;59;1933;-73
2022/04/02 13:11:02;;;;;;;;;;;;;;;;;;2197368;59;1215;-73
2022/04/02 13:13:45;;;;;;;;;;;;;;;;;;2197254;67;1198;-74
2022/04/02 13:16:18;;;;;;;;;;;;;;;;;;2197298;59;1699;-73
2022/04/02 13:21:45;;;;;;;;;;;;;;;;;;2197144;67;1161;-73
2022/04/02 13:24:37;;;;;;;;;;;;;;;;;;2197070;59;1596;-73
2022/04/02 13:27:28;;;;;;;;;;;;;;;;;;2196857;59;2572;-73
2022/04/02 13:30:08;;;;;;;;;;;;;;;;;;2196378;59;1907;-73
2022/04/02 13:33:00;;;;;;;;;;;;;;;;;;2196832;67;1265;-74
2022/04/02 13:35:38;;;;;;;;;;;;;;;;;;2198650;59;1849;-73
2022/04/02 13:38:32;;;;;;;;;;;;;;;;;;2197743;59;1150;-74
2022/04/02 13:41:06;;;;;;;;;;;;;;;;;;2201124;59;1040;-73
2022/04/02 13:43:40;;;;;;;;;;;;;;;;;;2200200;59;1843;-73
2022/04/02 13:46:16;;;;;;;;;;;;;;;;;;2198237;59;1688;-73
2022/04/02 13:48:54;;;;;;;;;;;;;;;;;;2198447;59;1932;-73
2022/04/02 13:51:37;;;;;;;;;;;;;;;;;;2197239;59;1132;-74
2022/04/02 13:54:11;;;;;;;;;;;;;;;;;;2200268;67;1298;-73
2022/04/02 13:56:50;;;;;;;;;;;;;;;;;;2198695;59;1576;-73
2022/04/02 13:59:28;;;;;;;;;;;;;;;;;;2198470;59;1072;-74
2022/04/02 14:02:07;;;;;;;;;;;;;;;;;;2197693;67;1183;-73
2022/04/02 14:04:40;;;;;;;;;;;;;;;;;;2197394;59;1262;-73
2022/04/02 14:07:19;;;;;;;;;;;;;;;;;;2197027;59;1979;-73
2022/04/02 14:09:55;;;;;;;;;;;;;;;;;;2197041;59;1115;-73
2022/04/02 14:12:33;;;;;;;;;;;;;;;;;;2197515;67;1016;-74
2022/04/02 14:15:09;;;;;;;;;;;;;;;;;;2197645;59;2070;-73
2022/04/02 14:17:46;;;;;;;;;;;;;;;;;;2197840;59;1135;-73
2022/04/02 14:20:20;;;;;;;;;;;;;;;;;;2198867;59;1815;-74
2022/04/02 14:23:09;;;;;;;;;;;;;;;;;;2198246;59;1151;-73
2022/04/02 14:26:01;;;;;;;;;;;;;;;;;;2198144;59;1646;-73
2022/04/02 14:28:53;;;;;;;;;;;;;;;;;;2197138;59;2616;-73
2022/04/02 14:31:44;;;;;;;;;;;;;;;;;;2203526;59;1796;-73
2022/04/02 14:34:35;;;;;;;;;;;;;;;;;;2198324;59;1308;-73
2022/04/02 14:37:27;;;;;;;;;;;;;;;;;;2197005;59;1671;-73
2022/04/02 14:40:15;;;;;;;;;;;;;;;;;;2198033;59;1171;-74
2022/04/02 14:43:11;;;;;;;;;;;;;;;;;;2202456;59;1811;-74
2022/04/02 14:46:09;;;;;;;;;;;;;;;;;;2201305;67;1257;-74
2022/04/02 14:49:06;;;;;;;;;;;;;;;;;;2202444;59;1932;-73
2022/04/02 14:52:02;;;;;;;;;;;;;;;;;;2196579;59;1462;-74
2022/04/02 14:54:49;;;;;;;;;;;;;;;;;;2203119;59;1531;-74
2022/04/02 14:57:37;;;;;;;;;;;;;;;;;;2198650;59;1698;-74
2022/04/02 15:00:29;;;;;;;;;;;;;;;;;;2198154;67;1041;-73
2022/04/02 15:03:31;;;;;;;;;;;;;;;;;;2197817;67;1093;-73
2022/04/02 15:06:08;;;;;;;;;;;;;;;;;;2198083;59;1266;-73
2022/04/02 15:08:56;;;;;;;;;;;;;;;;;;2198285;59;1922;-74
2022/04/02 15:11:33;;;;;;;;;;;;;;;;;;2196268;67;1293;-73
2022/04/02 15:14:12;;;;;;;;;;;;;;;;;;2196699;59;1180;-74
2022/04/02 15:16:46;;;;;;;;;;;;;;;;;;2197618;59;1714;-74
2022/04/02 15:19:26;;;;;;;;;;;;;;;;;;2197351;59;1891;-73
2022/04/02 15:22:03;;;;;;;;;;;;;;;;;;2196379;59;1204;-73
2022/04/02 15:24:37;;;;;;;;;;;;;;;;;;2195351;59;1238;-72
2022/04/02 15:27:11;;;;;;;;;;;;;;;;;;2197400;67;2538;-73
2022/04/02 15:29:46;;;;;;;;;;;;;;;;;;2196164;59;2608;-73
2022/04/02 15:32:22;;;;;;;;;;;;;;;;;;2202185;59;1679;-73
2022/04/02 15:34:58;;;;;;;;;;;;;;;;;;2199703;59;1702;-72
2022/04/02 15:37:37;;;;;;;;;;;;;;;;;;2196300;59;1266;-73
2022/04/02 15:40:11;;;;;;;;;;;;;;;;;;2197654;59;1677;-72
2022/04/02 15:42:46;;;;;;;;;;;;;;;;;;2196493;59;1124;-72
2022/04/02 15:45:20;;;;;;;;;;;;;;;;;;2195772;59;1954;-72
2022/04/02 15:47:57;;;;;;;;;;;;;;;;;;2197236;59;1929;-72
2022/04/02 15:50:34;;;;;;;;;;;;;;;;;;2198658;59;1723;-72
2022/04/02 15:53:20;;;;;;;;;;;;;;;;;;2197325;67;1219;-72
2022/04/02 15:55:57;;;;;;;;;;;;;;;;;;2197787;59;1564;-71
2022/04/02 15:58:31;;;;;;;;;;;;;;;;;;2197966;59;1281;-72
2022/04/02 16:01:05;;;;;;;;;;;;;;;;;;2198101;59;1791;-72
2022/04/02 16:03:44;;;;;;;;;;;;;;;;;;2196499;67;1066;-72
2022/04/02 16:06:36;;;;;;;;;;;;;;;;;;2196652;67;1425;-72
2022/04/02 16:09:27;;;;;;;;;;;;;;;;;;2198359;67;2095;-72
2022/04/02 16:12:00;;;;;;;;;;;;;;;;;;2198590;59;1651;-72
2022/04/02 16:14:34;;;;;;;;;;;;;;;;;;2196118;59;1932;-72
2022/04/02 16:17:08;;;;;;;;;;;;;;;;;;2198492;59;1669;-71
2022/04/02 16:19:44;;;;;;;;;;;;;;;;;;2201165;59;2055;-72
2022/04/02 16:22:21;;;;;;;;;;;;;;;;;;2197773;59;1944;-72
2022/04/02 16:24:56;;;;;;;;;;;;;;;;;;2196892;59;1353;-71
2022/04/02 16:27:30;;;;;;;;;;;;;;;;;;2197993;59;1136;-71
2022/04/02 16:30:10;;;;;;;;;;;;;;;;;;2196319;59;2674;-71
2022/04/02 16:32:46;;;;;;;;;;;;;;;;;;2198020;59;1754;-72
2022/04/02 16:35:19;;;;;;;;;;;;;;;;;;2196823;59;1589;-72
2022/04/02 16:38:07;;;;;;;;;;;;;;;;;;2199171;59;1334;-72
2022/04/02 16:40:42;;;;;;;;;;;;;;;;;;2200362;66;1069;-72
2022/04/02 16:43:17;;;;;;;;;;;;;;;;;;2198843;59;1915;-72
2022/04/02 16:46:04;;;;;;;;;;;;;;;;;;2198218;67;1995;-72
2022/04/02 16:48:39;;;;;;;;;;;;;;;;;;2199026;59;1941;-72
2022/04/02 16:51:14;;;;;;;;;;;;;;;;;;2199084;67;1195;-72
2022/04/02 16:53:55;;;;;;;;;;;;;;;;;;2200790;59;1929;-71
2022/04/02 16:56:32;;;;;;;;;;;;;;;;;;2199047;59;1596;-72
2022/04/02 16:59:06;;;;;;;;;;;;;;;;;;2199483;66;1260;-71
2022/04/02 17:01:40;;;;;;;;;;;;;;;;;;2197606;67;1092;-72
2022/04/02 17:04:19;;;;;;;;;;;;;;;;;;2198865;59;1291;-72
2022/04/02 17:07:05;;;;;;;;;;;;;;;;;;2197892;59;1242;-72
2022/04/02 17:09:42;;;;;;;;;;;;;;;;;;2199243;60;1985;-71
2022/04/02 17:12:15;;;;;;;;;;;;;;;;;;2198355;59;1269;-71
2022/04/02 17:14:48;;;;;;;;;;;;;;;;;;2198306;59;1508;-72
2022/04/02 17:17:28;;;;;;;;;;;;;;;;;;2198878;67;1188;-71
2022/04/02 17:20:04;;;;;;;;;;;;;;;;;;2198969;59;2041;-71
2022/04/02 17:22:41;;;;;;;;;;;;;;;;;;2203557;59;1162;-71
2022/04/02 17:25:18;;;;;;;;;;;;;;;;;;2203369;58;1585;-72
2022/04/02 17:27:53;;;;;;;;;;;;;;;;;;2202337;67;1231;-72
2022/04/02 17:30:27;;;;;;;;;;;;;;;;;;2201984;59;2501;-72
2022/04/02 17:33:01;;;;;;;;;;;;;;;;;;2211500;59;2370;-73
2022/04/02 17:35:35;;;;;;;;;;;;;;;;;;2202386;59;1839;-73
2022/04/02 17:38:16;;;;;;;;;;;;;;;;;;2200920;66;1108;-72
2022/04/02 17:40:53;;;;;;;;;;;;;;;;;;2201732;59;1209;-72
2022/04/02 17:43:31;;;;;;;;;;;;;;;;;;2204186;59;1843;-72
2022/04/02 17:46:05;;;;;;;;;;;;;;;;;;2203268;59;1239;-73
2022/04/02 17:48:41;;;;;;;;;;;;;;;;;;2207490;59;1974;-73
2022/04/02 17:51:15;;;;;;;;;;;;;;;;;;2202692;59;1550;-73
2022/04/02 17:53:49;;;;;;;;;;;;;;;;;;2204544;59;1137;-73
2022/04/02 17:56:34;;;;;;;;;;;;;;;;;;2199120;59;1714;-73
2022/04/02 17:59:09;;;;;;;;;;;;;;;;;;2202453;59;1386;-73
2022/04/02 18:01:42;;;;;;;;;;;;;;;;;;2203049;59;1588;-73
2022/04/02 18:04:17;;;;;;;;;;;;;;;;;;2200352;66;1119;-73
2022/04/02 18:06:54;;;;;;;;;;;;;;;;;;2200987;60;1242;-73
2022/04/02 18:09:28;;;;;;;;;;;;;;;;;;2202693;67;1981;-73
2022/04/02 18:12:05;;;;;;;;;;;;;;;;;;2205634;66;1174;-73
2022/04/02 18:14:38;;;;;;;;;;;;;;;;;;2202529;59;1508;-73
2022/04/02 18:17:14;;;;;;;;;;;;;;;;;;2203514;66;1257;-73
2022/04/02 18:19:47;;;;;;;;;;;;;;;;;;2199301;59;2026;-73
2022/04/02 18:22:20;;;;;;;;;;;;;;;;;;2202581;59;1124;-73
2022/04/02 18:24:53;;;;;;;;;;;;;;;;;;2201770;59;1301;-73
2022/04/02 18:27:30;;;;;;;;;;;;;;;;;;2202908;66;1310;-73